SWR123 RKSI-LSZH
Flight info
| Callsign | SWR123 |
|---|---|
| Flight time | N/A |
| Altitude | 21700 |
| Route | NOPIK Y697 AGAVO/K0848S0660 A591 IKEKA W4 FZ/K0911S1040 W4 HCH W200 DOVIV W55 PAMRU W34 VYK B215 LEBOM W104 VEXEB W47 IDSOT W48 DKO W66 GOVSA/K0907S1100 W66 NUKTI B215 FKG A368 SARIN/K0904F360 N161 ALZIS/K0889F380 N161 GASBI/N0490F380 N161 LEYLA N644 ADEKI DCT BADIR DCT LAGAS DCT NOLGA UN61 TBN UL851 OLUPO UM10 GOKPA/N0493F400 UL746 ODERO DCT LUGEB DCT NERDI DCT MOPUG DCT GOTAR DCT ERKIR DCT KPT L856 NEGRA |
| Aircraft | A359/H-SDE2E3GHIJ3J4J5LM1ORWXY/LB1D1 |
Departure
| Time | 2026-05-04 03:12 |
|---|---|
| Airport | Incheon International Airport (RKSI) |
Arrival
| Time | N/A |
|---|---|
| Airport | Zürich Airport (LSZH) |
| Time | Latitude | Longitude | Altitude | Speed | Heading |
|---|---|---|---|---|---|
| 2026-05-04 02:33 | 37.44513 | 126.44745 | 38 ft | 0 kts | 50° |
| 2026-05-04 02:35 | 37.44512 | 126.44745 | 38 ft | 0 kts | 50° |
| 2026-05-04 03:00 | 37.44505 | 126.44735 | 39 ft | 4 kts | 50° |
| 2026-05-04 03:01 | 37.44488 | 126.44709 | 38 ft | 4 kts | 50° |
| 2026-05-04 03:01 | 37.44473 | 126.44686 | 39 ft | 3 kts | 49° |
| 2026-05-04 03:01 | 37.44456 | 126.44666 | 38 ft | 4 kts | 18° |
| 2026-05-04 03:01 | 37.44444 | 126.44661 | 38 ft | 4 kts | 326° |
| 2026-05-04 03:02 | 37.44432 | 126.44679 | 39 ft | 4 kts | 293° |
| 2026-05-04 03:02 | 37.44422 | 126.44710 | 38 ft | 4 kts | 289° |
| 2026-05-04 03:02 | 37.44419 | 126.44723 | 37 ft | 0 kts | 290° |
| 2026-05-04 03:06 | 37.44421 | 126.44714 | 37 ft | 4 kts | 290° |
| 2026-05-04 03:06 | 37.44441 | 126.44668 | 36 ft | 7 kts | 304° |
| 2026-05-04 03:06 | 37.44473 | 126.44628 | 37 ft | 7 kts | 321° |
| 2026-05-04 03:07 | 37.44512 | 126.44598 | 39 ft | 7 kts | 335° |
| 2026-05-04 03:07 | 37.44554 | 126.44576 | 39 ft | 7 kts | 336° |
| 2026-05-04 03:07 | 37.44595 | 126.44546 | 39 ft | 7 kts | 326° |
| 2026-05-04 03:07 | 37.44631 | 126.44509 | 39 ft | 5 kts | 304° |
| 2026-05-04 03:08 | 37.44631 | 126.44476 | 39 ft | 4 kts | 255° |
| 2026-05-04 03:08 | 37.44606 | 126.44420 | 39 ft | 10 kts | 234° |
| 2026-05-04 03:08 | 37.44551 | 126.44327 | 39 ft | 16 kts | 234° |
| 2026-05-04 03:08 | 37.44527 | 126.44284 | 39 ft | 0 kts | 234° |
| 2026-05-04 03:09 | 37.44520 | 126.44272 | 39 ft | 4 kts | 234° |
| 2026-05-04 03:09 | 37.44495 | 126.44228 | 39 ft | 7 kts | 234° |
| 2026-05-04 03:10 | 37.44468 | 126.44181 | 39 ft | 7 kts | 234° |
| 2026-05-04 03:10 | 37.44445 | 126.44131 | 39 ft | 6 kts | 251° |
| 2026-05-04 03:10 | 37.44451 | 126.44088 | 39 ft | 4 kts | 297° |
| 2026-05-04 03:10 | 37.44472 | 126.44062 | 39 ft | 6 kts | 321° |
| 2026-05-04 03:11 | 37.44480 | 126.44054 | 39 ft | 0 kts | 322° |
| 2026-05-04 03:11 | 37.44633 | 126.43917 | 39 ft | 58 kts | 324° |
| 2026-05-04 03:11 | 37.45131 | 126.43472 | 39 ft | 116 kts | 324° |
| 2026-05-04 03:12 | 37.45935 | 126.42756 | 39 ft | 166 kts | 325° |
| 2026-05-04 03:12 | 37.46976 | 126.41867 | 396 ft | 183 kts | 322° |
| 2026-05-04 03:12 | 37.47874 | 126.40892 | 1235 ft | 167 kts | 311° |
| 2026-05-04 03:12 | 37.48614 | 126.39739 | 1597 ft | 176 kts | 306° |
| 2026-05-04 03:13 | 37.49398 | 126.38456 | 1784 ft | 194 kts | 308° |
| 2026-05-04 03:13 | 37.50206 | 126.36984 | 1909 ft | 213 kts | 297° |
| 2026-05-04 03:13 | 37.50525 | 126.35113 | 2177 ft | 229 kts | 275° |
| 2026-05-04 03:13 | 37.50536 | 126.33056 | 2551 ft | 239 kts | 273° |
| 2026-05-04 03:14 | 37.50550 | 126.30948 | 3107 ft | 243 kts | 274° |
| 2026-05-04 03:14 | 37.50588 | 126.28799 | 3647 ft | 246 kts | 275° |
| 2026-05-04 03:14 | 37.50632 | 126.26644 | 4192 ft | 248 kts | 275° |
| 2026-05-04 03:14 | 37.50680 | 126.24464 | 4740 ft | 250 kts | 276° |
| 2026-05-04 03:15 | 37.50731 | 126.22258 | 5291 ft | 252 kts | 276° |
| 2026-05-04 03:15 | 37.50776 | 126.20047 | 5868 ft | 254 kts | 275° |
| 2026-05-04 03:15 | 37.50536 | 126.17812 | 6357 ft | 265 kts | 256° |
| 2026-05-04 03:15 | 37.49627 | 126.15760 | 6919 ft | 272 kts | 240° |
| 2026-05-04 03:16 | 37.48534 | 126.13798 | 7459 ft | 275 kts | 241° |
| 2026-05-04 03:16 | 37.47461 | 126.11797 | 7997 ft | 278 kts | 242° |
| 2026-05-04 03:16 | 37.46390 | 126.09764 | 8580 ft | 280 kts | 242° |
| 2026-05-04 03:16 | 37.45309 | 126.07710 | 9159 ft | 283 kts | 242° |
| 2026-05-04 03:17 | 37.44212 | 126.05624 | 9746 ft | 286 kts | 242° |
| 2026-05-04 03:17 | 37.43117 | 126.03540 | 10241 ft | 292 kts | 242° |
| 2026-05-04 03:17 | 37.41975 | 126.01359 | 10494 ft | 306 kts | 242° |
| 2026-05-04 03:17 | 37.40937 | 125.98988 | 10694 ft | 313 kts | 255° |
| 2026-05-04 03:18 | 37.40611 | 125.96291 | 10924 ft | 315 kts | 275° |
| 2026-05-04 03:18 | 37.40647 | 125.93493 | 11212 ft | 326 kts | 275° |
| 2026-05-04 03:18 | 37.40647 | 125.90581 | 11490 ft | 339 kts | 274° |
| 2026-05-04 03:18 | 37.40617 | 125.87555 | 11767 ft | 351 kts | 274° |
| 2026-05-04 03:19 | 37.40583 | 125.84438 | 12049 ft | 361 kts | 274° |
| 2026-05-04 03:19 | 37.40545 | 125.81249 | 12459 ft | 367 kts | 274° |
| 2026-05-04 03:19 | 37.40505 | 125.78024 | 12958 ft | 371 kts | 273° |
| 2026-05-04 03:19 | 37.40463 | 125.74758 | 13484 ft | 374 kts | 274° |
| 2026-05-04 03:20 | 37.40421 | 125.71477 | 13976 ft | 377 kts | 274° |
| 2026-05-04 03:20 | 37.40377 | 125.68163 | 14436 ft | 380 kts | 274° |
| 2026-05-04 03:20 | 37.40333 | 125.64825 | 14906 ft | 382 kts | 274° |
| 2026-05-04 03:20 | 37.40292 | 125.61469 | 15370 ft | 385 kts | 274° |
| 2026-05-04 03:21 | 37.40249 | 125.58098 | 15824 ft | 387 kts | 274° |
| 2026-05-04 03:21 | 37.40200 | 125.54692 | 16285 ft | 390 kts | 274° |
| 2026-05-04 03:21 | 37.40149 | 125.51276 | 16738 ft | 392 kts | 274° |
| 2026-05-04 03:21 | 37.40098 | 125.47882 | 17199 ft | 394 kts | 274° |
| 2026-05-04 03:22 | 37.40045 | 125.44425 | 17639 ft | 397 kts | 274° |
| 2026-05-04 03:22 | 37.39992 | 125.40941 | 18076 ft | 400 kts | 274° |
| 2026-05-04 03:22 | 37.39938 | 125.37433 | 18486 ft | 402 kts | 273° |
| 2026-05-04 03:22 | 37.39882 | 125.33911 | 18875 ft | 404 kts | 273° |
| 2026-05-04 03:23 | 37.39825 | 125.30367 | 19306 ft | 405 kts | 273° |
| 2026-05-04 03:23 | 37.39766 | 125.26816 | 19734 ft | 407 kts | 273° |
| 2026-05-04 03:23 | 37.39706 | 125.23256 | 20186 ft | 408 kts | 273° |
| 2026-05-04 03:23 | 37.39642 | 125.19671 | 20616 ft | 410 kts | 272° |
| 2026-05-04 03:24 | 37.39579 | 125.16078 | 21071 ft | 411 kts | 272° |
| 2026-05-04 03:24 | 37.39517 | 125.12474 | 21537 ft | 413 kts | 272° |
| 2026-05-04 03:24 | 37.39454 | 125.08856 | 21994 ft | 414 kts | 272° |
| 2026-05-04 03:24 | 37.39390 | 125.05233 | 22448 ft | 416 kts | 272° |
| 2026-05-04 03:25 | 37.39324 | 125.01584 | 22896 ft | 418 kts | 272° |
| 2026-05-04 03:25 | 37.39256 | 124.97927 | 23349 ft | 419 kts | 272° |
| 2026-05-04 03:25 | 37.39186 | 124.94243 | 23755 ft | 421 kts | 272° |
| 2026-05-04 03:25 | 37.39116 | 124.90597 | 24128 ft | 423 kts | 272° |
| 2026-05-04 03:26 | 37.39043 | 124.86854 | 24507 ft | 424 kts | 272° |
| 2026-05-04 03:26 | 37.38969 | 124.83140 | 24885 ft | 425 kts | 271° |
| 2026-05-04 03:26 | 37.38895 | 124.79465 | 25248 ft | 427 kts | 271° |
| 2026-05-04 03:26 | 37.38818 | 124.75739 | 25610 ft | 428 kts | 271° |
| 2026-05-04 03:27 | 37.38739 | 124.71982 | 25968 ft | 429 kts | 271° |
| 2026-05-04 03:27 | 37.38658 | 124.68226 | 26323 ft | 431 kts | 271° |
| 2026-05-04 03:27 | 37.38576 | 124.64458 | 26671 ft | 432 kts | 271° |
| 2026-05-04 03:27 | 37.38493 | 124.60663 | 27017 ft | 434 kts | 271° |
| 2026-05-04 03:28 | 37.38408 | 124.56868 | 27346 ft | 435 kts | 271° |
| 2026-05-04 03:28 | 37.38322 | 124.53047 | 27673 ft | 437 kts | 271° |
| 2026-05-04 03:28 | 37.38230 | 124.49215 | 27992 ft | 438 kts | 271° |
| 2026-05-04 03:28 | 37.37940 | 124.45389 | 28292 ft | 443 kts | 264° |
| 2026-05-04 03:29 | 37.37231 | 124.41591 | 28580 ft | 449 kts | 256° |
| 2026-05-04 03:29 | 37.36057 | 124.37931 | 28865 ft | 456 kts | 248° |
| 2026-05-04 03:29 | 37.34488 | 124.34464 | 29254 ft | 458 kts | 244° |
| 2026-05-04 03:29 | 37.32796 | 124.31064 | 29683 ft | 457 kts | 243° |
| 2026-05-04 03:30 | 37.31082 | 124.27711 | 30095 ft | 456 kts | 243° |
| 2026-05-04 03:30 | 37.29367 | 124.24373 | 30439 ft | 454 kts | 243° |
| 2026-05-04 03:30 | 37.27659 | 124.21035 | 30763 ft | 452 kts | 243° |
| 2026-05-04 03:30 | 37.25966 | 124.17706 | 31082 ft | 451 kts | 243° |
| 2026-05-04 03:31 | 37.24291 | 124.14397 | 31379 ft | 449 kts | 243° |
| 2026-05-04 03:31 | 37.22619 | 124.11098 | 31696 ft | 448 kts | 242° |
| 2026-05-04 03:31 | 37.20910 | 124.07832 | 31990 ft | 447 kts | 241° |
| 2026-05-04 03:31 | 37.19183 | 124.04607 | 32274 ft | 446 kts | 241° |
| 2026-05-04 03:32 | 37.17446 | 124.01392 | 32551 ft | 444 kts | 240° |
| 2026-05-04 03:32 | 37.15749 | 123.98252 | 32821 ft | 443 kts | 240° |
| 2026-05-04 03:32 | 37.14053 | 123.95043 | 33083 ft | 441 kts | 242° |
| 2026-05-04 03:32 | 37.12389 | 123.91814 | 33352 ft | 440 kts | 242° |
| 2026-05-04 03:33 | 37.10748 | 123.88599 | 33613 ft | 438 kts | 242° |
| 2026-05-04 03:33 | 37.09104 | 123.85378 | 33871 ft | 437 kts | 242° |
| 2026-05-04 03:33 | 37.07464 | 123.82176 | 34100 ft | 436 kts | 242° |
| 2026-05-04 03:34 | 37.04159 | 123.75759 | 34172 ft | 442 kts | 241° |
| 2026-05-04 03:34 | 37.01581 | 123.70780 | 34171 ft | 443 kts | 241° |
| 2026-05-04 03:35 | 36.98225 | 123.64324 | 34172 ft | 441 kts | 241° |
| 2026-05-04 03:35 | 36.94878 | 123.57895 | 34171 ft | 441 kts | 241° |
| 2026-05-04 03:36 | 36.91535 | 123.51480 | 34172 ft | 441 kts | 241° |
| 2026-05-04 03:36 | 36.88201 | 123.45048 | 34171 ft | 440 kts | 243° |
| 2026-05-04 03:37 | 36.85754 | 123.38138 | 34176 ft | 433 kts | 257° |
| 2026-05-04 03:37 | 36.84998 | 123.30779 | 34178 ft | 430 kts | 272° |
| 2026-05-04 03:38 | 36.85984 | 123.23413 | 34186 ft | 432 kts | 284° |
| 2026-05-04 03:38 | 36.87728 | 123.16210 | 34180 ft | 433 kts | 285° |
| 2026-05-04 03:39 | 36.89513 | 123.09011 | 34177 ft | 434 kts | 285° |
| 2026-05-04 03:39 | 36.91266 | 123.01795 | 34179 ft | 434 kts | 285° |
| 2026-05-04 03:40 | 36.93001 | 122.94555 | 34178 ft | 435 kts | 285° |
| 2026-05-04 03:40 | 36.94730 | 122.87306 | 34176 ft | 435 kts | 285° |
| 2026-05-04 03:41 | 36.96442 | 122.80106 | 34175 ft | 435 kts | 285° |
| 2026-05-04 03:41 | 36.98165 | 122.72845 | 34175 ft | 436 kts | 285° |
| 2026-05-04 03:42 | 36.99888 | 122.65562 | 34173 ft | 436 kts | 285° |
| 2026-05-04 03:42 | 37.01609 | 122.58266 | 34173 ft | 437 kts | 285° |
| 2026-05-04 03:43 | 37.03323 | 122.50980 | 34174 ft | 437 kts | 285° |
| 2026-05-04 03:43 | 37.05035 | 122.43674 | 34175 ft | 437 kts | 285° |
| 2026-05-04 03:44 | 37.07092 | 122.36508 | 34171 ft | 440 kts | 294° |
| 2026-05-04 03:44 | 37.10577 | 122.30231 | 34173 ft | 447 kts | 310° |
| 2026-05-04 03:45 | 37.15240 | 122.24988 | 34177 ft | 448 kts | 311° |
| 2026-05-04 03:45 | 37.18993 | 122.18869 | 34173 ft | 441 kts | 296° |
| 2026-05-04 03:46 | 37.21296 | 122.11768 | 34173 ft | 439 kts | 287° |
| 2026-05-04 03:46 | 37.23176 | 122.04471 | 34174 ft | 439 kts | 286° |
| 2026-05-04 03:47 | 37.25013 | 121.97208 | 34174 ft | 440 kts | 287° |
| 2026-05-04 03:47 | 37.26883 | 121.89894 | 34171 ft | 440 kts | 287° |
| 2026-05-04 03:48 | 37.28761 | 121.82588 | 34173 ft | 440 kts | 287° |
| 2026-05-04 03:48 | 37.30641 | 121.75257 | 34172 ft | 440 kts | 287° |
| 2026-05-04 03:49 | 37.32517 | 121.67919 | 34175 ft | 441 kts | 287° |
| 2026-05-04 03:49 | 37.34385 | 121.60588 | 34171 ft | 441 kts | 287° |
| 2026-05-04 03:50 | 37.36242 | 121.53286 | 34173 ft | 441 kts | 287° |
| 2026-05-04 03:50 | 37.38106 | 121.45930 | 34168 ft | 442 kts | 287° |
| 2026-05-04 03:51 | 37.39966 | 121.38565 | 34170 ft | 442 kts | 287° |
| 2026-05-04 03:51 | 37.41824 | 121.31189 | 34169 ft | 442 kts | 287° |
| 2026-05-04 03:52 | 37.43678 | 121.23806 | 34169 ft | 443 kts | 287° |
| 2026-05-04 03:52 | 37.45535 | 121.16407 | 34169 ft | 443 kts | 287° |
| 2026-05-04 03:53 | 37.47731 | 121.09166 | 34169 ft | 444 kts | 292° |
| 2026-05-04 03:53 | 37.50142 | 121.02017 | 34172 ft | 444 kts | 292° |
| 2026-05-04 03:54 | 37.52501 | 120.94819 | 34170 ft | 444 kts | 291° |
| 2026-05-04 03:54 | 37.54782 | 120.87653 | 34170 ft | 444 kts | 291° |
| 2026-05-04 03:55 | 37.57065 | 120.80409 | 34176 ft | 444 kts | 291° |
| 2026-05-04 03:55 | 37.59350 | 120.73167 | 34179 ft | 444 kts | 291° |
| 2026-05-04 03:56 | 37.61710 | 120.65969 | 34173 ft | 445 kts | 292° |
| 2026-05-04 03:56 | 37.64102 | 120.58756 | 34175 ft | 445 kts | 292° |
| 2026-05-04 03:57 | 37.66780 | 120.51732 | 34178 ft | 445 kts | 298° |
| 2026-05-04 03:57 | 37.69851 | 120.44934 | 34180 ft | 445 kts | 299° |
| 2026-05-04 03:58 | 37.74475 | 120.34831 | 34177 ft | 445 kts | 299° |
| 2026-05-04 03:58 | 37.77560 | 120.28056 | 34177 ft | 444 kts | 299° |
| 2026-05-04 03:59 | 37.80637 | 120.21271 | 34175 ft | 444 kts | 299° |
| 2026-05-04 03:59 | 37.83707 | 120.14483 | 34176 ft | 445 kts | 299° |
| 2026-05-04 04:00 | 37.86773 | 120.07693 | 34177 ft | 444 kts | 299° |
| 2026-05-04 04:00 | 37.89833 | 120.00900 | 34174 ft | 444 kts | 299° |
| 2026-05-04 04:01 | 37.92890 | 119.94104 | 34174 ft | 444 kts | 299° |
| 2026-05-04 04:01 | 37.95947 | 119.87290 | 34174 ft | 445 kts | 299° |
| 2026-05-04 04:02 | 37.98998 | 119.80474 | 34167 ft | 445 kts | 299° |
| 2026-05-04 04:02 | 38.02053 | 119.73633 | 34168 ft | 445 kts | 299° |
| 2026-05-04 04:03 | 38.05105 | 119.66788 | 34164 ft | 446 kts | 298° |
| 2026-05-04 04:03 | 38.08153 | 119.59936 | 34166 ft | 446 kts | 298° |
| 2026-05-04 04:04 | 38.11112 | 119.53069 | 34159 ft | 446 kts | 294° |
| 2026-05-04 04:04 | 38.13569 | 119.45824 | 34158 ft | 447 kts | 292° |
| 2026-05-04 04:05 | 38.15943 | 119.38520 | 34157 ft | 447 kts | 292° |
| 2026-05-04 04:05 | 38.18306 | 119.31207 | 34160 ft | 448 kts | 292° |
| 2026-05-04 04:06 | 38.20677 | 119.23881 | 34158 ft | 448 kts | 292° |
| 2026-05-04 04:06 | 38.23043 | 119.16565 | 34153 ft | 448 kts | 292° |
| 2026-05-04 04:07 | 38.25409 | 119.09232 | 34153 ft | 448 kts | 292° |
| 2026-05-04 04:07 | 38.27696 | 119.02123 | 34150 ft | 449 kts | 292° |
| 2026-05-04 04:08 | 38.30074 | 118.94712 | 34153 ft | 449 kts | 292° |
| 2026-05-04 04:08 | 38.32412 | 118.87409 | 34151 ft | 449 kts | 292° |
| 2026-05-04 04:09 | 38.34768 | 118.80029 | 34155 ft | 449 kts | 292° |
| 2026-05-04 04:09 | 38.37126 | 118.72639 | 34146 ft | 450 kts | 292° |
| 2026-05-04 04:10 | 38.39489 | 118.65247 | 34150 ft | 450 kts | 292° |
| 2026-05-04 04:10 | 38.41836 | 118.57883 | 34150 ft | 451 kts | 292° |
| 2026-05-04 04:11 | 38.44191 | 118.50471 | 34136 ft | 451 kts | 292° |
| 2026-05-04 04:11 | 38.46547 | 118.43039 | 34136 ft | 452 kts | 292° |
| 2026-05-04 04:12 | 38.48904 | 118.35587 | 34141 ft | 452 kts | 292° |
| 2026-05-04 04:12 | 38.51246 | 118.28150 | 34142 ft | 452 kts | 292° |
| 2026-05-04 04:13 | 38.53573 | 118.20737 | 34141 ft | 452 kts | 292° |
| 2026-05-04 04:13 | 38.55913 | 118.13268 | 34139 ft | 453 kts | 292° |
| 2026-05-04 04:14 | 38.58336 | 118.05849 | 34135 ft | 453 kts | 297° |
| 2026-05-04 04:14 | 38.61906 | 117.99244 | 34138 ft | 454 kts | 311° |
| 2026-05-04 04:15 | 38.66242 | 117.93349 | 34132 ft | 455 kts | 313° |
| 2026-05-04 04:15 | 38.70646 | 117.87531 | 34128 ft | 455 kts | 313° |
| 2026-05-04 04:16 | 38.75050 | 117.81680 | 34118 ft | 456 kts | 312° |
| 2026-05-04 04:16 | 38.79439 | 117.75803 | 34124 ft | 456 kts | 312° |
| 2026-05-04 04:17 | 38.83821 | 117.69913 | 34117 ft | 456 kts | 312° |
| 2026-05-04 04:17 | 38.88199 | 117.64016 | 34112 ft | 456 kts | 312° |
| 2026-05-04 04:18 | 38.92546 | 117.58153 | 34105 ft | 456 kts | 313° |
| 2026-05-04 04:18 | 38.96921 | 117.52241 | 34100 ft | 457 kts | 313° |
| 2026-05-04 04:19 | 39.01307 | 117.46301 | 34096 ft | 457 kts | 313° |
| 2026-05-04 04:19 | 39.05484 | 117.40149 | 34091 ft | 457 kts | 304° |
| 2026-05-04 04:20 | 39.08299 | 117.32894 | 34093 ft | 458 kts | 288° |
| 2026-05-04 04:20 | 39.09642 | 117.24812 | 34093 ft | 460 kts | 282° |
| 2026-05-04 04:21 | 39.10681 | 117.16734 | 34089 ft | 461 kts | 281° |
| 2026-05-04 04:21 | 39.11718 | 117.08616 | 34099 ft | 461 kts | 281° |
| 2026-05-04 04:22 | 39.12780 | 117.00478 | 34096 ft | 461 kts | 282° |
| 2026-05-04 04:22 | 39.13720 | 116.93744 | 34094 ft | 461 kts | 283° |
| 2026-05-04 04:23 | 39.15024 | 116.85645 | 34093 ft | 461 kts | 284° |
| 2026-05-04 04:23 | 39.16337 | 116.77550 | 34098 ft | 462 kts | 283° |
| 2026-05-04 04:24 | 39.17614 | 116.69433 | 34098 ft | 462 kts | 283° |
| 2026-05-04 04:24 | 39.18752 | 116.61281 | 34089 ft | 464 kts | 278° |
| 2026-05-04 04:25 | 39.18459 | 116.52939 | 34096 ft | 472 kts | 262° |
| 2026-05-04 04:25 | 39.16751 | 116.44744 | 34090 ft | 475 kts | 257° |
| 2026-05-04 04:26 | 39.14818 | 116.36604 | 34094 ft | 475 kts | 257° |
| 2026-05-04 04:26 | 39.12884 | 116.28463 | 34093 ft | 475 kts | 257° |
| 2026-05-04 04:27 | 39.10983 | 116.20348 | 34095 ft | 475 kts | 257° |
| 2026-05-04 04:27 | 39.09082 | 116.12203 | 34093 ft | 475 kts | 257° |
| 2026-05-04 04:28 | 39.07176 | 116.04052 | 34098 ft | 475 kts | 257° |
| 2026-05-04 04:28 | 39.05274 | 115.95954 | 34090 ft | 475 kts | 257° |
| 2026-05-04 04:29 | 39.03354 | 115.87818 | 34092 ft | 475 kts | 257° |
| 2026-05-04 04:29 | 39.01428 | 115.79680 | 34096 ft | 475 kts | 257° |
| 2026-05-04 04:30 | 38.99497 | 115.71554 | 34094 ft | 475 kts | 257° |
| 2026-05-04 04:30 | 38.97562 | 115.63434 | 34089 ft | 475 kts | 257° |
| 2026-05-04 04:31 | 38.95615 | 115.55297 | 34091 ft | 476 kts | 257° |
| 2026-05-04 04:31 | 38.93337 | 115.47286 | 34092 ft | 480 kts | 251° |
| 2026-05-04 04:32 | 38.90648 | 115.39488 | 34092 ft | 481 kts | 250° |
| 2026-05-04 04:32 | 38.87879 | 115.31661 | 34090 ft | 481 kts | 250° |
| 2026-05-04 04:33 | 38.85117 | 115.23855 | 34091 ft | 481 kts | 250° |
| 2026-05-04 04:33 | 38.82354 | 115.16035 | 34090 ft | 481 kts | 250° |
| 2026-05-04 04:34 | 38.79601 | 115.08249 | 34092 ft | 482 kts | 250° |
| 2026-05-04 04:34 | 38.76825 | 115.00417 | 33769 ft | 482 kts | 250° |
| 2026-05-04 04:35 | 38.75442 | 114.96523 | 34011 ft | 480 kts | 250° |
| 2026-05-04 04:35 | 38.74052 | 114.92620 | 34088 ft | 481 kts | 250° |
| 2026-05-04 04:35 | 38.71304 | 114.84900 | 34091 ft | 479 kts | 250° |
| 2026-05-04 04:36 | 38.68538 | 114.77143 | 34094 ft | 479 kts | 250° |
| 2026-05-04 04:36 | 38.65759 | 114.69369 | 34095 ft | 479 kts | 250° |
| 2026-05-04 04:37 | 38.60188 | 114.53895 | 34088 ft | 479 kts | 249° |
| 2026-05-04 04:38 | 38.57381 | 114.46166 | 34083 ft | 479 kts | 249° |
| 2026-05-04 04:38 | 38.54578 | 114.38437 | 34093 ft | 479 kts | 249° |
| 2026-05-04 04:39 | 38.51786 | 114.30750 | 34094 ft | 479 kts | 249° |
| 2026-05-04 04:39 | 38.48972 | 114.23023 | 34094 ft | 479 kts | 249° |
| 2026-05-04 04:40 | 38.46154 | 114.15306 | 34099 ft | 479 kts | 249° |
| 2026-05-04 04:40 | 38.43379 | 114.07728 | 34101 ft | 479 kts | 249° |
| 2026-05-04 04:41 | 38.40561 | 114.00039 | 34098 ft | 479 kts | 249° |
| 2026-05-04 04:41 | 38.37731 | 113.92334 | 34101 ft | 479 kts | 249° |
| 2026-05-04 04:42 | 38.34899 | 113.84649 | 34091 ft | 479 kts | 249° |
| 2026-05-04 04:42 | 38.32054 | 113.76979 | 34090 ft | 479 kts | 248° |
| 2026-05-04 04:43 | 38.29164 | 113.69331 | 34092 ft | 479 kts | 248° |
| 2026-05-04 04:43 | 38.26267 | 113.61698 | 34088 ft | 479 kts | 248° |
| 2026-05-04 04:44 | 38.23370 | 113.54065 | 34085 ft | 479 kts | 248° |
| 2026-05-04 04:44 | 38.20491 | 113.46489 | 34085 ft | 478 kts | 248° |
| 2026-05-04 04:45 | 38.17595 | 113.38882 | 34084 ft | 478 kts | 248° |
| 2026-05-04 04:47 | 38.07609 | 113.12184 | 34091 ft | 478 kts | 248° |
| 2026-05-04 04:47 | 38.04755 | 113.04572 | 34100 ft | 478 kts | 248° |
| 2026-05-04 04:48 | 38.01887 | 112.96951 | 34101 ft | 478 kts | 248° |
| 2026-05-04 04:49 | 37.94710 | 112.77960 | 34109 ft | 478 kts | 248° |
| 2026-05-04 04:49 | 37.91823 | 112.70351 | 34117 ft | 479 kts | 248° |
| 2026-05-04 04:50 | 37.88934 | 112.62760 | 34126 ft | 479 kts | 248° |
| 2026-05-04 04:50 | 37.86006 | 112.55177 | 34119 ft | 480 kts | 246° |
| 2026-05-04 04:51 | 37.82848 | 112.47735 | 34117 ft | 481 kts | 245° |
| 2026-05-04 04:51 | 37.79753 | 112.40259 | 34114 ft | 478 kts | 251° |
| 2026-05-04 04:52 | 37.78131 | 112.32230 | 34105 ft | 469 kts | 268° |
| 2026-05-04 04:52 | 37.78396 | 112.24104 | 34102 ft | 465 kts | 278° |
| 2026-05-04 04:53 | 37.79209 | 112.15961 | 34093 ft | 465 kts | 279° |
| 2026-05-04 04:53 | 37.80048 | 112.07865 | 34092 ft | 465 kts | 279° |
| 2026-05-04 04:54 | 37.80847 | 111.99742 | 34094 ft | 465 kts | 279° |
| 2026-05-04 04:54 | 37.81618 | 111.91608 | 34095 ft | 466 kts | 279° |
| 2026-05-04 04:55 | 37.82378 | 111.83473 | 34102 ft | 466 kts | 279° |
| 2026-05-04 04:55 | 37.83131 | 111.75388 | 34105 ft | 466 kts | 279° |
| 2026-05-04 04:56 | 37.83903 | 111.67244 | 34112 ft | 466 kts | 279° |
| 2026-05-04 04:56 | 37.84836 | 111.59285 | 34107 ft | 465 kts | 283° |
| 2026-05-04 04:57 | 37.87003 | 111.51625 | 34117 ft | 462 kts | 300° |
| 2026-05-04 04:57 | 37.90867 | 111.45188 | 34116 ft | 461 kts | 316° |
| 2026-05-04 04:58 | 37.95819 | 111.40040 | 34111 ft | 461 kts | 322° |
| 2026-05-04 04:58 | 38.00918 | 111.35092 | 34104 ft | 461 kts | 322° |
| 2026-05-04 04:59 | 38.06004 | 111.30135 | 34100 ft | 462 kts | 322° |
| 2026-05-04 04:59 | 38.11048 | 111.25161 | 34099 ft | 462 kts | 322° |
| 2026-05-04 05:00 | 38.16108 | 111.20142 | 34094 ft | 462 kts | 322° |
| 2026-05-04 05:01 | 38.23699 | 111.12594 | 34082 ft | 461 kts | 322° |
| 2026-05-04 05:01 | 38.28757 | 111.07559 | 34079 ft | 461 kts | 322° |
| 2026-05-04 05:02 | 38.33815 | 111.02516 | 34077 ft | 462 kts | 322° |
| 2026-05-04 05:02 | 38.38872 | 110.97464 | 34069 ft | 462 kts | 321° |
| 2026-05-04 05:03 | 38.43897 | 110.92430 | 34065 ft | 462 kts | 321° |
| 2026-05-04 05:04 | 38.54014 | 110.82274 | 34058 ft | 462 kts | 321° |
| 2026-05-04 05:04 | 38.59055 | 110.77200 | 34055 ft | 462 kts | 321° |
| 2026-05-04 05:06 | 38.79209 | 110.56818 | 34046 ft | 462 kts | 321° |
| 2026-05-04 05:07 | 38.84245 | 110.51701 | 34037 ft | 461 kts | 321° |
| 2026-05-04 05:07 | 38.89283 | 110.46572 | 34036 ft | 462 kts | 321° |
| 2026-05-04 05:09 | 39.11927 | 110.23650 | 34016 ft | 460 kts | 321° |
| 2026-05-04 05:10 | 39.16302 | 110.17715 | 34010 ft | 461 kts | 306° |
| 2026-05-04 05:10 | 39.19133 | 110.10329 | 34008 ft | 464 kts | 288° |
| 2026-05-04 05:11 | 39.20146 | 110.02087 | 34003 ft | 468 kts | 276° |
| 2026-05-04 05:11 | 39.20524 | 109.93708 | 33997 ft | 469 kts | 275° |
| 2026-05-04 05:12 | 39.20856 | 109.85299 | 33993 ft | 469 kts | 275° |
| 2026-05-04 05:12 | 39.21221 | 109.76887 | 33997 ft | 470 kts | 275° |
| 2026-05-04 05:13 | 39.21537 | 109.69898 | 33991 ft | 470 kts | 275° |
| 2026-05-04 05:13 | 39.21979 | 109.60064 | 33987 ft | 470 kts | 275° |
| 2026-05-04 05:14 | 39.22347 | 109.51693 | 33991 ft | 470 kts | 275° |
| 2026-05-04 05:14 | 39.22704 | 109.43258 | 33986 ft | 471 kts | 275° |
| 2026-05-04 05:15 | 39.23018 | 109.34838 | 33989 ft | 471 kts | 275° |
| 2026-05-04 05:15 | 39.23274 | 109.27809 | 33988 ft | 471 kts | 275° |
| 2026-05-04 05:16 | 39.23582 | 109.19361 | 33983 ft | 471 kts | 275° |
| 2026-05-04 05:16 | 39.23888 | 109.10901 | 33980 ft | 472 kts | 275° |
| 2026-05-04 05:17 | 39.24189 | 109.02440 | 33975 ft | 472 kts | 275° |
| 2026-05-04 05:17 | 39.24483 | 108.93992 | 33974 ft | 472 kts | 275° |
| 2026-05-04 05:18 | 39.24770 | 108.85587 | 33968 ft | 472 kts | 275° |
| 2026-05-04 05:18 | 39.25057 | 108.77139 | 33968 ft | 472 kts | 275° |
| 2026-05-04 05:19 | 39.25334 | 108.68683 | 33967 ft | 472 kts | 275° |
| 2026-05-04 05:19 | 39.25605 | 108.60223 | 33971 ft | 472 kts | 275° |
| 2026-05-04 05:20 | 39.25871 | 108.51760 | 33965 ft | 472 kts | 275° |
| 2026-05-04 05:20 | 39.26131 | 108.43309 | 33971 ft | 472 kts | 275° |
| 2026-05-04 05:21 | 39.26385 | 108.34850 | 33968 ft | 471 kts | 275° |
| 2026-05-04 05:21 | 39.26633 | 108.26393 | 33966 ft | 471 kts | 275° |
| 2026-05-04 05:22 | 39.27170 | 108.17991 | 33961 ft | 468 kts | 283° |
| 2026-05-04 05:22 | 39.29344 | 108.10154 | 33961 ft | 463 kts | 300° |
| 2026-05-04 05:23 | 39.33271 | 108.03638 | 33960 ft | 461 kts | 317° |
| 2026-05-04 05:23 | 39.38105 | 107.98271 | 33959 ft | 462 kts | 320° |
| 2026-05-04 05:24 | 39.43077 | 107.92985 | 33952 ft | 462 kts | 321° |
| 2026-05-04 05:24 | 39.48036 | 107.87670 | 33955 ft | 463 kts | 320° |
| 2026-05-04 05:25 | 39.52987 | 107.82305 | 33953 ft | 463 kts | 320° |
| 2026-05-04 05:25 | 39.57921 | 107.76931 | 33948 ft | 464 kts | 320° |
| 2026-05-04 05:26 | 39.62866 | 107.71537 | 33946 ft | 464 kts | 320° |
| 2026-05-04 05:26 | 39.67779 | 107.66168 | 33949 ft | 465 kts | 320° |
| 2026-05-04 05:28 | 39.87587 | 107.44424 | 33934 ft | 466 kts | 320° |
| 2026-05-04 05:29 | 39.92538 | 107.38962 | 33935 ft | 467 kts | 320° |
| 2026-05-04 05:29 | 39.97460 | 107.33521 | 33928 ft | 467 kts | 320° |
| 2026-05-04 05:31 | 40.17299 | 107.11483 | 33917 ft | 469 kts | 320° |
| 2026-05-04 05:32 | 40.22267 | 107.05938 | 33911 ft | 469 kts | 320° |
| 2026-05-04 05:33 | 40.29394 | 106.97194 | 33906 ft | 471 kts | 309° |
| 2026-05-04 05:33 | 40.32626 | 106.89713 | 33912 ft | 475 kts | 293° |
| 2026-05-04 05:34 | 40.34884 | 106.81564 | 33904 ft | 477 kts | 290° |
| 2026-05-04 05:34 | 40.37018 | 106.73319 | 33902 ft | 477 kts | 290° |
| 2026-05-04 05:35 | 40.39166 | 106.65062 | 33908 ft | 478 kts | 290° |
| 2026-05-04 05:35 | 40.41318 | 106.56879 | 33907 ft | 478 kts | 290° |
| 2026-05-04 05:36 | 40.43493 | 106.48621 | 33906 ft | 478 kts | 290° |
| 2026-05-04 05:36 | 40.45663 | 106.40354 | 33911 ft | 479 kts | 290° |
| 2026-05-04 05:37 | 40.47826 | 106.32080 | 33913 ft | 479 kts | 290° |
| 2026-05-04 05:37 | 40.49984 | 106.23794 | 33915 ft | 479 kts | 290° |
| 2026-05-04 05:38 | 40.53213 | 106.11342 | 33920 ft | 480 kts | 290° |
| 2026-05-04 05:38 | 40.55345 | 106.03088 | 33921 ft | 480 kts | 290° |
| 2026-05-04 05:39 | 40.58559 | 105.90589 | 33916 ft | 481 kts | 290° |
| 2026-05-04 05:40 | 40.61762 | 105.78068 | 33915 ft | 481 kts | 290° |
| 2026-05-04 05:40 | 40.63892 | 105.69708 | 33908 ft | 481 kts | 290° |
| 2026-05-04 05:41 | 40.66000 | 105.61405 | 33903 ft | 482 kts | 290° |
| 2026-05-04 05:41 | 40.68117 | 105.53034 | 33903 ft | 482 kts | 290° |
| 2026-05-04 05:42 | 40.70235 | 105.44633 | 33896 ft | 482 kts | 290° |
| 2026-05-04 05:42 | 40.72344 | 105.36236 | 33895 ft | 482 kts | 290° |
| 2026-05-04 05:43 | 40.74447 | 105.27833 | 33891 ft | 482 kts | 289° |
| 2026-05-04 05:45 | 40.82791 | 104.94204 | 33883 ft | 483 kts | 289° |
| 2026-05-04 05:47 | 40.91044 | 104.60457 | 33875 ft | 483 kts | 289° |
| 2026-05-04 05:47 | 40.93095 | 104.51993 | 33870 ft | 483 kts | 289° |
| 2026-05-04 05:48 | 40.95142 | 104.43521 | 33864 ft | 483 kts | 289° |
| 2026-05-04 05:48 | 40.97182 | 104.35041 | 33862 ft | 483 kts | 289° |
| 2026-05-04 05:49 | 40.99274 | 104.26591 | 33860 ft | 483 kts | 291° |
| 2026-05-04 05:49 | 41.01705 | 104.18305 | 33854 ft | 482 kts | 293° |
| 2026-05-04 05:51 | 41.11364 | 103.85084 | 33850 ft | 483 kts | 292° |
| 2026-05-04 05:52 | 41.13715 | 103.76807 | 33852 ft | 483 kts | 292° |
| 2026-05-04 05:52 | 41.16075 | 103.68477 | 33849 ft | 482 kts | 292° |
| 2026-05-04 05:54 | 41.25446 | 103.35135 | 33839 ft | 481 kts | 292° |
| 2026-05-04 05:55 | 41.27774 | 103.26782 | 33835 ft | 481 kts | 292° |
| 2026-05-04 05:55 | 41.30092 | 103.18439 | 33833 ft | 481 kts | 292° |
| 2026-05-04 05:56 | 41.32400 | 103.10105 | 33832 ft | 480 kts | 292° |
| 2026-05-04 05:56 | 41.34694 | 103.01796 | 33831 ft | 480 kts | 292° |
| 2026-05-04 05:57 | 41.37012 | 102.93475 | 33824 ft | 479 kts | 292° |
| 2026-05-04 05:57 | 41.39415 | 102.85196 | 33825 ft | 479 kts | 293° |
| 2026-05-04 05:58 | 41.41823 | 102.76911 | 33827 ft | 478 kts | 292° |
| 2026-05-04 05:58 | 41.44194 | 102.68672 | 33821 ft | 478 kts | 292° |
| 2026-05-04 05:59 | 41.46591 | 102.60353 | 33821 ft | 477 kts | 292° |
| 2026-05-04 05:59 | 41.48944 | 102.52149 | 33817 ft | 476 kts | 292° |
| 2026-05-04 06:00 | 41.51304 | 102.43895 | 33818 ft | 476 kts | 292° |
| 2026-05-04 06:00 | 41.53654 | 102.35651 | 33818 ft | 475 kts | 292° |
| 2026-05-04 06:01 | 41.55999 | 102.27401 | 33824 ft | 474 kts | 292° |
| 2026-05-04 06:03 | 41.65263 | 101.94539 | 33819 ft | 471 kts | 292° |
| 2026-05-04 06:05 | 41.75107 | 101.59143 | 33811 ft | 467 kts | 291° |
| 2026-05-04 06:06 | 41.77356 | 101.50984 | 33811 ft | 467 kts | 291° |
| 2026-05-04 06:06 | 41.79601 | 101.42813 | 33806 ft | 466 kts | 291° |
| 2026-05-04 06:07 | 41.81835 | 101.34659 | 33807 ft | 465 kts | 291° |
| 2026-05-04 06:07 | 41.84040 | 101.26505 | 33802 ft | 465 kts | 289° |
| 2026-05-04 06:08 | 41.85223 | 101.18040 | 33808 ft | 467 kts | 275° |
| 2026-05-04 06:08 | 41.85520 | 101.09320 | 33798 ft | 468 kts | 274° |
| 2026-05-04 06:09 | 41.85693 | 101.00600 | 33802 ft | 468 kts | 273° |
| 2026-05-04 06:11 | 41.86433 | 100.65769 | 33797 ft | 466 kts | 274° |
| 2026-05-04 06:13 | 41.87099 | 100.31114 | 33791 ft | 465 kts | 273° |
| 2026-05-04 06:14 | 41.87596 | 100.00777 | 33792 ft | 465 kts | 273° |
| 2026-05-04 06:15 | 41.87723 | 99.92107 | 33788 ft | 464 kts | 273° |
| 2026-05-04 06:15 | 41.87844 | 99.83442 | 33790 ft | 464 kts | 273° |
| 2026-05-04 06:16 | 41.87957 | 99.74831 | 33789 ft | 464 kts | 273° |
| 2026-05-04 06:16 | 41.88065 | 99.66171 | 33786 ft | 464 kts | 273° |
| 2026-05-04 06:17 | 41.88166 | 99.57512 | 33789 ft | 464 kts | 273° |
| 2026-05-04 06:17 | 41.88261 | 99.48867 | 33790 ft | 463 kts | 273° |
| 2026-05-04 06:18 | 41.88349 | 99.40225 | 33789 ft | 463 kts | 273° |
| 2026-05-04 06:20 | 41.88635 | 99.05752 | 33791 ft | 462 kts | 272° |
| 2026-05-04 06:21 | 41.88762 | 98.84279 | 33799 ft | 461 kts | 272° |
| 2026-05-04 06:22 | 41.88801 | 98.75690 | 33799 ft | 460 kts | 272° |
| 2026-05-04 06:25 | 41.88897 | 98.15843 | 33807 ft | 456 kts | 272° |
| 2026-05-04 06:26 | 41.88885 | 98.07327 | 33807 ft | 456 kts | 272° |
| 2026-05-04 06:26 | 41.88868 | 97.98836 | 33821 ft | 455 kts | 272° |
| 2026-05-04 06:27 | 41.88796 | 97.77674 | 33807 ft | 454 kts | 272° |
| 2026-05-04 06:28 | 41.88757 | 97.69207 | 33809 ft | 454 kts | 272° |
| 2026-05-04 06:28 | 41.88711 | 97.60730 | 33804 ft | 454 kts | 272° |
| 2026-05-04 06:29 | 41.88659 | 97.52270 | 33798 ft | 453 kts | 272° |
| 2026-05-04 06:29 | 41.88601 | 97.43801 | 33813 ft | 454 kts | 272° |
| 2026-05-04 06:30 | 41.88537 | 97.35339 | 33815 ft | 454 kts | 272° |
| 2026-05-04 06:30 | 41.88466 | 97.26867 | 33820 ft | 454 kts | 272° |
| 2026-05-04 06:31 | 41.88389 | 97.18451 | 33818 ft | 454 kts | 272° |
| 2026-05-04 06:31 | 41.88306 | 97.09992 | 33829 ft | 454 kts | 272° |
| 2026-05-04 06:33 | 41.87912 | 96.76187 | 33833 ft | 453 kts | 272° |
| 2026-05-04 06:34 | 41.87798 | 96.67744 | 33826 ft | 452 kts | 272° |
| 2026-05-04 06:34 | 41.87678 | 96.59309 | 33836 ft | 452 kts | 272° |
| 2026-05-04 06:36 | 41.87139 | 96.25664 | 34080 ft | 447 kts | 272° |
| 2026-05-04 06:37 | 41.87069 | 96.21524 | 34438 ft | 443 kts | 272° |
| 2026-05-04 06:37 | 41.87031 | 96.17399 | 34703 ft | 441 kts | 273° |
| 2026-05-04 06:37 | 41.87015 | 96.13289 | 34911 ft | 440 kts | 273° |
| 2026-05-04 06:37 | 41.87007 | 96.09176 | 35088 ft | 440 kts | 273° |
| 2026-05-04 06:38 | 41.86997 | 96.05126 | 35278 ft | 439 kts | 273° |
| 2026-05-04 06:38 | 41.86980 | 96.01020 | 35463 ft | 439 kts | 273° |
| 2026-05-04 06:40 | 41.86762 | 95.72146 | 35847 ft | 444 kts | 272° |
| 2026-05-04 06:40 | 41.86724 | 95.68040 | 35845 ft | 444 kts | 272° |
| 2026-05-04 06:40 | 41.86642 | 95.59752 | 35834 ft | 444 kts | 272° |
| 2026-05-04 06:41 | 41.86555 | 95.51464 | 35828 ft | 444 kts | 272° |
| 2026-05-04 06:41 | 41.86462 | 95.43186 | 35825 ft | 444 kts | 272° |
| 2026-05-04 06:42 | 41.86364 | 95.34907 | 35829 ft | 444 kts | 272° |
| 2026-05-04 06:44 | 41.95321 | 95.05848 | 35797 ft | 437 kts | 310° |
| 2026-05-04 06:44 | 41.99374 | 94.99759 | 35790 ft | 437 kts | 310° |
| 2026-05-04 06:45 | 42.03403 | 94.93647 | 35788 ft | 437 kts | 310° |
| 2026-05-04 06:45 | 42.07415 | 94.87501 | 35787 ft | 437 kts | 309° |
| 2026-05-04 06:46 | 42.11415 | 94.81342 | 35779 ft | 436 kts | 309° |
| 2026-05-04 06:46 | 42.15409 | 94.75182 | 35772 ft | 436 kts | 309° |
| 2026-05-04 06:48 | 42.31324 | 94.50521 | 35768 ft | 436 kts | 309° |
| 2026-05-04 06:50 | 42.47215 | 94.25690 | 35773 ft | 436 kts | 308° |
| 2026-05-04 06:51 | 42.51179 | 94.19462 | 35775 ft | 436 kts | 308° |
| 2026-05-04 06:51 | 42.55132 | 94.13239 | 35778 ft | 436 kts | 308° |
| 2026-05-04 06:52 | 42.59086 | 94.07001 | 35779 ft | 436 kts | 308° |
| 2026-05-04 06:52 | 42.62371 | 94.01808 | 35781 ft | 436 kts | 308° |
| 2026-05-04 06:53 | 42.66313 | 93.95566 | 35787 ft | 436 kts | 308° |
| 2026-05-04 06:53 | 42.70895 | 93.88291 | 35795 ft | 435 kts | 308° |
| 2026-05-04 06:54 | 42.74189 | 93.83050 | 35791 ft | 435 kts | 308° |
| 2026-05-04 06:54 | 42.78100 | 93.76818 | 35792 ft | 435 kts | 308° |
| 2026-05-04 06:55 | 42.82007 | 93.70526 | 35787 ft | 434 kts | 305° |
| 2026-05-04 06:55 | 42.85092 | 93.63504 | 35786 ft | 431 kts | 291° |
| 2026-05-04 06:57 | 42.92861 | 93.32699 | 35786 ft | 430 kts | 288° |
| 2026-05-04 06:58 | 42.94773 | 93.24968 | 35779 ft | 430 kts | 288° |
| 2026-05-04 06:58 | 42.96683 | 93.17228 | 35786 ft | 430 kts | 288° |
| 2026-05-04 06:59 | 42.98587 | 93.09484 | 35775 ft | 430 kts | 288° |
| 2026-05-04 06:59 | 43.00487 | 93.01727 | 35786 ft | 430 kts | 288° |
| 2026-05-04 07:01 | 43.08009 | 92.70748 | 35790 ft | 429 kts | 287° |
| 2026-05-04 07:02 | 43.09878 | 92.62985 | 35787 ft | 429 kts | 287° |
| 2026-05-04 07:02 | 43.11743 | 92.55216 | 35780 ft | 429 kts | 287° |
| 2026-05-04 07:03 | 43.13602 | 92.47444 | 35790 ft | 429 kts | 287° |
| 2026-05-04 07:03 | 43.15445 | 92.39708 | 35792 ft | 429 kts | 287° |
| 2026-05-04 07:04 | 43.17305 | 92.31876 | 35793 ft | 429 kts | 287° |
| 2026-05-04 07:04 | 43.19130 | 92.24164 | 35796 ft | 429 kts | 287° |
| 2026-05-04 07:05 | 43.20965 | 92.16384 | 35802 ft | 428 kts | 287° |
| 2026-05-04 07:05 | 43.22793 | 92.08606 | 35810 ft | 428 kts | 286° |
| 2026-05-04 07:06 | 43.25522 | 91.96943 | 35811 ft | 428 kts | 286° |
| 2026-05-04 07:07 | 43.27336 | 91.89159 | 35810 ft | 428 kts | 286° |
| 2026-05-04 07:09 | 43.34522 | 91.58046 | 35832 ft | 427 kts | 286° |
| 2026-05-04 07:09 | 43.36305 | 91.50255 | 35827 ft | 427 kts | 285° |
| 2026-05-04 07:10 | 43.38071 | 91.42516 | 35850 ft | 428 kts | 285° |
| 2026-05-04 07:12 | 43.45130 | 91.11255 | 35875 ft | 428 kts | 285° |
| 2026-05-04 07:12 | 43.46881 | 91.03419 | 35908 ft | 428 kts | 285° |
| 2026-05-04 07:13 | 43.48616 | 90.95630 | 35906 ft | 428 kts | 285° |
| 2026-05-04 07:13 | 43.50353 | 90.87805 | 35928 ft | 427 kts | 285° |
| 2026-05-04 07:14 | 43.54679 | 90.68185 | 35943 ft | 428 kts | 284° |
| 2026-05-04 07:15 | 43.56400 | 90.60328 | 35958 ft | 427 kts | 284° |
| 2026-05-04 07:15 | 43.58116 | 90.52475 | 35946 ft | 428 kts | 284° |
| 2026-05-04 07:16 | 43.59828 | 90.44592 | 35979 ft | 429 kts | 284° |
| 2026-05-04 07:16 | 43.61535 | 90.36714 | 35991 ft | 429 kts | 284° |
| 2026-05-04 07:17 | 43.63239 | 90.28820 | 35988 ft | 429 kts | 284° |
| 2026-05-04 07:17 | 43.64931 | 90.20955 | 36000 ft | 430 kts | 284° |
| 2026-05-04 07:18 | 43.66629 | 90.13042 | 35974 ft | 430 kts | 284° |
| 2026-05-04 07:18 | 43.68329 | 90.05111 | 35980 ft | 431 kts | 284° |
| 2026-05-04 07:19 | 43.70124 | 89.97204 | 35977 ft | 431 kts | 285° |
| 2026-05-04 07:19 | 43.71950 | 89.89305 | 35977 ft | 431 kts | 285° |
| 2026-05-04 07:20 | 43.73756 | 89.81396 | 35975 ft | 431 kts | 284° |
| 2026-05-04 07:20 | 43.75535 | 89.73525 | 35974 ft | 432 kts | 284° |
| 2026-05-04 07:22 | 43.82704 | 89.41771 | 35976 ft | 433 kts | 284° |
| 2026-05-04 07:23 | 43.84557 | 89.33819 | 35980 ft | 433 kts | 284° |
| 2026-05-04 07:23 | 43.86400 | 89.25851 | 35987 ft | 434 kts | 284° |
| 2026-05-04 07:24 | 43.88227 | 89.17895 | 35987 ft | 433 kts | 284° |
| 2026-05-04 07:24 | 43.90048 | 89.09926 | 35990 ft | 434 kts | 284° |
| 2026-05-04 07:26 | 43.97298 | 88.77990 | 36003 ft | 435 kts | 285° |
| 2026-05-04 07:27 | 43.99309 | 88.70062 | 36012 ft | 436 kts | 286° |
| 2026-05-04 07:27 | 44.01376 | 88.62147 | 36016 ft | 435 kts | 286° |
| 2026-05-04 07:28 | 44.03410 | 88.54206 | 36018 ft | 437 kts | 285° |
| 2026-05-04 07:28 | 44.05421 | 88.46237 | 36020 ft | 437 kts | 285° |
| 2026-05-04 07:29 | 44.07423 | 88.38255 | 36018 ft | 437 kts | 285° |
| 2026-05-04 07:29 | 44.09405 | 88.30326 | 36011 ft | 437 kts | 285° |
| 2026-05-04 07:30 | 44.11401 | 88.22321 | 36006 ft | 438 kts | 285° |
| 2026-05-04 07:30 | 44.13394 | 88.14303 | 35994 ft | 438 kts | 285° |
| 2026-05-04 07:31 | 44.15384 | 88.06267 | 35988 ft | 439 kts | 285° |
| 2026-05-04 07:33 | 44.26819 | 87.80706 | 35962 ft | 452 kts | 302° |
| 2026-05-04 07:33 | 44.28723 | 87.77206 | 35961 ft | 452 kts | 301° |
| 2026-05-04 07:33 | 44.32506 | 87.70199 | 35956 ft | 452 kts | 301° |
| 2026-05-04 07:34 | 44.36310 | 87.63179 | 35958 ft | 453 kts | 302° |
| 2026-05-04 07:34 | 44.40163 | 87.56191 | 35956 ft | 454 kts | 302° |
| 2026-05-04 07:35 | 44.44016 | 87.49195 | 35958 ft | 454 kts | 302° |
| 2026-05-04 07:35 | 44.47838 | 87.42217 | 35957 ft | 455 kts | 302° |
| 2026-05-04 07:36 | 44.51677 | 87.35181 | 35954 ft | 455 kts | 302° |
| 2026-05-04 07:38 | 44.67597 | 87.07312 | 35955 ft | 459 kts | 303° |
| 2026-05-04 07:38 | 44.70942 | 87.01531 | 35952 ft | 459 kts | 303° |
| 2026-05-04 07:39 | 44.75625 | 86.93418 | 35952 ft | 459 kts | 303° |
| 2026-05-04 07:39 | 44.79651 | 86.86429 | 35951 ft | 460 kts | 303° |
| 2026-05-04 07:40 | 44.83677 | 86.79427 | 35946 ft | 460 kts | 303° |
| 2026-05-04 07:40 | 44.87672 | 86.72382 | 35945 ft | 460 kts | 303° |
| 2026-05-04 07:41 | 44.91623 | 86.65294 | 35943 ft | 460 kts | 302° |
| 2026-05-04 07:41 | 44.94910 | 86.59391 | 35938 ft | 460 kts | 302° |
| 2026-05-04 07:42 | 44.99511 | 86.51136 | 35941 ft | 460 kts | 302° |
| 2026-05-04 07:42 | 45.03473 | 86.44018 | 35938 ft | 460 kts | 302° |
| 2026-05-04 07:43 | 45.06759 | 86.38102 | 35937 ft | 460 kts | 302° |
| 2026-05-04 07:43 | 45.10706 | 86.30980 | 35937 ft | 460 kts | 302° |
| 2026-05-04 07:44 | 45.14652 | 86.23840 | 35933 ft | 460 kts | 302° |
| 2026-05-04 07:44 | 45.18594 | 86.16689 | 35931 ft | 460 kts | 302° |
| 2026-05-04 07:45 | 45.22529 | 86.09532 | 35932 ft | 460 kts | 302° |
| 2026-05-04 07:45 | 45.26455 | 86.02373 | 35925 ft | 460 kts | 302° |
| 2026-05-04 07:46 | 45.30378 | 85.95202 | 35921 ft | 460 kts | 302° |
| 2026-05-04 07:46 | 45.34295 | 85.88025 | 35915 ft | 460 kts | 302° |
| 2026-05-04 07:47 | 45.38214 | 85.80825 | 35914 ft | 459 kts | 302° |
| 2026-05-04 07:49 | 45.53800 | 85.52009 | 35906 ft | 459 kts | 302° |
| 2026-05-04 07:49 | 45.57690 | 85.44772 | 35911 ft | 459 kts | 302° |
| 2026-05-04 07:50 | 45.61570 | 85.37534 | 35905 ft | 459 kts | 302° |
| 2026-05-04 07:50 | 45.65447 | 85.30283 | 35907 ft | 459 kts | 302° |
| 2026-05-04 07:51 | 45.69297 | 85.23065 | 35906 ft | 459 kts | 302° |
| 2026-05-04 07:51 | 45.73171 | 85.15813 | 35914 ft | 458 kts | 302° |
| 2026-05-04 07:52 | 45.77060 | 85.08557 | 35918 ft | 458 kts | 302° |
| 2026-05-04 07:52 | 45.80911 | 85.01352 | 35916 ft | 458 kts | 302° |
| 2026-05-04 07:54 | 45.96331 | 84.72275 | 35943 ft | 458 kts | 302° |
| 2026-05-04 07:55 | 46.00184 | 84.64963 | 35953 ft | 458 kts | 302° |
| 2026-05-04 07:55 | 46.04021 | 84.57662 | 35957 ft | 457 kts | 302° |
| 2026-05-04 07:56 | 46.07824 | 84.50408 | 35969 ft | 457 kts | 302° |
| 2026-05-04 07:56 | 46.11649 | 84.43092 | 35978 ft | 457 kts | 302° |
| 2026-05-04 07:57 | 46.15465 | 84.35772 | 35996 ft | 457 kts | 302° |
| 2026-05-04 07:57 | 46.19279 | 84.28438 | 36007 ft | 456 kts | 302° |
| 2026-05-04 07:58 | 46.23087 | 84.21099 | 36018 ft | 456 kts | 302° |
| 2026-05-04 07:58 | 46.26886 | 84.13758 | 36021 ft | 456 kts | 302° |
| 2026-05-04 07:59 | 46.30673 | 84.06401 | 36020 ft | 455 kts | 302° |
| 2026-05-04 07:59 | 46.34433 | 83.99030 | 36025 ft | 455 kts | 302° |
| 2026-05-04 08:00 | 46.38185 | 83.91661 | 36008 ft | 455 kts | 302° |
| 2026-05-04 08:02 | 46.53141 | 83.62150 | 36007 ft | 454 kts | 302° |
| 2026-05-04 08:02 | 46.56867 | 83.54749 | 36010 ft | 454 kts | 302° |
| 2026-05-04 08:03 | 46.60583 | 83.47350 | 36009 ft | 454 kts | 302° |
| 2026-05-04 08:03 | 46.64303 | 83.39922 | 36012 ft | 453 kts | 302° |
| 2026-05-04 08:04 | 46.67930 | 83.32495 | 36015 ft | 452 kts | 299° |
| 2026-05-04 08:04 | 46.71244 | 83.24741 | 36014 ft | 450 kts | 297° |
| 2026-05-04 08:05 | 46.74498 | 83.16933 | 36012 ft | 450 kts | 297° |
| 2026-05-04 08:05 | 46.77801 | 83.09155 | 36015 ft | 451 kts | 298° |
| 2026-05-04 08:06 | 46.81132 | 83.01390 | 36019 ft | 451 kts | 298° |
| 2026-05-04 08:06 | 46.84439 | 82.93611 | 36025 ft | 450 kts | 296° |
| 2026-05-04 08:08 | 46.89168 | 82.63125 | 36043 ft | 442 kts | 276° |
| 2026-05-04 08:08 | 46.89604 | 82.58665 | 36042 ft | 442 kts | 276° |
| 2026-05-04 08:11 | 46.93566 | 82.18633 | 36041 ft | 442 kts | 276° |
| 2026-05-04 08:11 | 46.94859 | 82.05265 | 36038 ft | 442 kts | 276° |
| 2026-05-04 08:12 | 46.95709 | 81.96392 | 36036 ft | 443 kts | 276° |
| 2026-05-04 08:12 | 46.96554 | 81.87490 | 35973 ft | 443 kts | 276° |
| 2026-05-04 08:13 | 46.97387 | 81.78555 | 35930 ft | 443 kts | 275° |
| 2026-05-04 08:13 | 46.98212 | 81.69616 | 35928 ft | 443 kts | 275° |
| 2026-05-04 08:14 | 46.99032 | 81.60668 | 35925 ft | 443 kts | 275° |
| 2026-05-04 08:16 | 47.02237 | 81.24952 | 35933 ft | 443 kts | 275° |
| 2026-05-04 08:16 | 47.03023 | 81.15988 | 35936 ft | 443 kts | 275° |
| 2026-05-04 08:17 | 47.03801 | 81.07027 | 35941 ft | 443 kts | 275° |
| 2026-05-04 08:17 | 47.04576 | 80.98072 | 35948 ft | 443 kts | 275° |
| 2026-05-04 08:19 | 47.07594 | 80.62162 | 35982 ft | 444 kts | 275° |
| 2026-05-04 08:20 | 47.08333 | 80.53164 | 35988 ft | 444 kts | 275° |
| 2026-05-04 08:20 | 47.09060 | 80.44233 | 35998 ft | 444 kts | 275° |
| 2026-05-04 08:21 | 47.09784 | 80.35229 | 35995 ft | 444 kts | 275° |
| 2026-05-04 08:21 | 47.10502 | 80.26216 | 36015 ft | 444 kts | 275° |
| 2026-05-04 08:22 | 47.11213 | 80.17209 | 36024 ft | 444 kts | 275° |
| 2026-05-04 08:24 | 47.13992 | 79.81183 | 36048 ft | 444 kts | 275° |
| 2026-05-04 08:24 | 47.14692 | 79.72152 | 36036 ft | 445 kts | 275° |
| 2026-05-04 08:25 | 47.15384 | 79.63129 | 36039 ft | 445 kts | 275° |
| 2026-05-04 08:25 | 47.16069 | 79.54089 | 36049 ft | 445 kts | 275° |
| 2026-05-04 08:27 | 47.18736 | 79.17882 | 36054 ft | 446 kts | 275° |
| 2026-05-04 08:28 | 47.19382 | 79.08875 | 36065 ft | 446 kts | 274° |
| 2026-05-04 08:28 | 47.20003 | 78.99792 | 36073 ft | 446 kts | 274° |
| 2026-05-04 08:29 | 47.20514 | 78.92192 | 36075 ft | 446 kts | 274° |
| 2026-05-04 08:31 | 47.22912 | 78.55842 | 36077 ft | 447 kts | 274° |
| 2026-05-04 08:33 | 47.25209 | 78.19279 | 36082 ft | 449 kts | 274° |
| 2026-05-04 08:35 | 47.27392 | 77.82671 | 36082 ft | 450 kts | 274° |
| 2026-05-04 08:35 | 47.27921 | 77.73476 | 36091 ft | 450 kts | 274° |
| 2026-05-04 08:37 | 47.29717 | 77.41270 | 36101 ft | 451 kts | 274° |
| 2026-05-04 08:38 | 47.30212 | 77.32086 | 36089 ft | 452 kts | 274° |
| 2026-05-04 08:38 | 47.30703 | 77.22848 | 36088 ft | 452 kts | 274° |
| 2026-05-04 08:40 | 47.33527 | 76.86021 | 36095 ft | 454 kts | 278° |
| 2026-05-04 08:41 | 47.34527 | 76.76822 | 36102 ft | 454 kts | 278° |
| 2026-05-04 08:41 | 47.35461 | 76.67612 | 36107 ft | 454 kts | 277° |
| 2026-05-04 08:42 | 47.36370 | 76.58387 | 36106 ft | 455 kts | 277° |
| 2026-05-04 08:42 | 47.37271 | 76.49161 | 36110 ft | 455 kts | 277° |
| 2026-05-04 08:43 | 47.38171 | 76.39908 | 36110 ft | 455 kts | 277° |
| 2026-05-04 08:43 | 47.39062 | 76.30670 | 36114 ft | 455 kts | 277° |
| 2026-05-04 08:44 | 47.39948 | 76.21414 | 36105 ft | 455 kts | 277° |
| 2026-05-04 08:46 | 47.43411 | 75.84406 | 36116 ft | 455 kts | 277° |
| 2026-05-04 08:46 | 47.44259 | 75.75134 | 36125 ft | 455 kts | 277° |
| 2026-05-04 08:47 | 47.45101 | 75.65850 | 36114 ft | 456 kts | 277° |
| 2026-05-04 08:47 | 47.45935 | 75.56562 | 36116 ft | 455 kts | 277° |
| 2026-05-04 08:48 | 47.46756 | 75.47333 | 36120 ft | 456 kts | 277° |
| 2026-05-04 08:48 | 47.47576 | 75.38034 | 36135 ft | 456 kts | 277° |
| 2026-05-04 08:49 | 47.48386 | 75.28750 | 36125 ft | 456 kts | 277° |
| 2026-05-04 08:50 | 47.51169 | 74.96170 | 36138 ft | 456 kts | 277° |
| 2026-05-04 08:51 | 47.51942 | 74.86918 | 36128 ft | 456 kts | 277° |
| 2026-05-04 08:51 | 47.52712 | 74.77610 | 36142 ft | 456 kts | 277° |
| 2026-05-04 08:52 | 47.53478 | 74.68259 | 36139 ft | 457 kts | 277° |
| 2026-05-04 08:52 | 47.54233 | 74.58941 | 36126 ft | 457 kts | 277° |
| 2026-05-04 08:54 | 47.57186 | 74.21541 | 36135 ft | 459 kts | 277° |
| 2026-05-04 08:55 | 47.57909 | 74.12142 | 36131 ft | 459 kts | 277° |
| 2026-05-04 08:55 | 47.58624 | 74.02736 | 36131 ft | 460 kts | 277° |
| 2026-05-04 09:01 | 47.65714 | 73.03120 | 36130 ft | 466 kts | 276° |
| 2026-05-04 09:01 | 47.66350 | 72.93533 | 36133 ft | 466 kts | 276° |
| 2026-05-04 09:02 | 47.66978 | 72.83949 | 36131 ft | 467 kts | 276° |
| 2026-05-04 09:02 | 47.67600 | 72.74347 | 36126 ft | 467 kts | 276° |
| 2026-05-04 09:03 | 47.68212 | 72.64744 | 36132 ft | 468 kts | 276° |
| 2026-05-04 09:03 | 47.68818 | 72.55121 | 36127 ft | 468 kts | 276° |
| 2026-05-04 09:04 | 47.69316 | 72.47114 | 36126 ft | 468 kts | 276° |
| 2026-05-04 09:04 | 47.70005 | 72.35868 | 36125 ft | 468 kts | 276° |
| 2026-05-04 09:05 | 47.70582 | 72.26307 | 36120 ft | 468 kts | 276° |
| 2026-05-04 09:05 | 47.71156 | 72.16677 | 36122 ft | 468 kts | 276° |
| 2026-05-04 09:06 | 47.71722 | 72.07032 | 36123 ft | 468 kts | 276° |
| 2026-05-04 09:08 | 47.73763 | 71.68501 | 36111 ft | 469 kts | 275° |
| 2026-05-04 09:08 | 47.74129 | 71.58832 | 36114 ft | 469 kts | 275° |
| 2026-05-04 09:09 | 47.74506 | 71.49169 | 36106 ft | 469 kts | 275° |
| 2026-05-04 09:09 | 47.74887 | 71.39502 | 36107 ft | 468 kts | 275° |
| 2026-05-04 09:10 | 47.75263 | 71.29843 | 36109 ft | 468 kts | 275° |
| 2026-05-04 09:10 | 47.75631 | 71.20172 | 36108 ft | 468 kts | 275° |